createdAt,value
2023-06-07T00:04:37.099Z,49.48
2023-06-07T00:09:40.279Z,50.41
2023-06-07T00:14:44.708Z,51.05
2023-06-07T00:19:47.994Z,51.49
2023-06-07T00:24:52.816Z,51.69
2023-06-07T00:29:56.000Z,52.01
2023-06-07T00:34:59.151Z,52.33
2023-06-07T00:40:02.332Z,52.93
2023-06-07T00:45:06.500Z,53.19
2023-06-07T00:50:09.823Z,52.89
2023-06-07T00:55:14.526Z,52.11
2023-06-07T01:00:17.771Z,52.44
2023-06-07T01:05:21.437Z,53.29
2023-06-07T01:10:27.197Z,54.31
2023-06-07T01:15:30.757Z,57.98
2023-06-07T01:20:36.562Z,56.87
2023-06-07T01:25:39.829Z,58.08
2023-06-07T01:30:43.489Z,55.90
2023-06-07T01:35:47.810Z,57.26
2023-06-07T01:40:53.389Z,57.66
2023-06-07T01:45:57.011Z,59.04
2023-06-07T01:50:59.838Z,58.65
2023-06-07T01:56:17.274Z,59.27
2023-06-07T02:01:32.342Z,60.85
2023-06-07T02:06:38.040Z,61.69
2023-06-07T02:11:42.236Z,72.25
2023-06-07T02:16:45.050Z,61.93
2023-06-07T02:21:47.896Z,53.12
2023-06-07T02:26:50.683Z,55.68
2023-06-07T02:31:59.170Z,57.78
2023-06-07T02:37:01.991Z,58.93
2023-06-07T02:42:06.474Z,59.79
2023-06-07T02:47:09.594Z,59.73
2023-06-07T02:52:12.595Z,58.59
2023-06-07T02:57:15.542Z,57.58
2023-06-07T03:02:18.330Z,58.05
2023-06-07T03:07:21.760Z,58.44
2023-06-07T03:12:24.557Z,59.46
2023-06-07T03:17:28.185Z,60.54
2023-06-07T03:22:31.002Z,59.21
2023-06-07T03:27:35.946Z,61.48
2023-06-07T03:32:38.729Z,73.85
2023-06-07T03:37:41.544Z,63.75
2023-06-07T03:42:44.455Z,54.08
2023-06-07T03:47:47.304Z,53.65
2023-06-07T03:52:50.106Z,55.52
2023-06-07T03:57:52.998Z,56.97
2023-06-07T04:02:56.956Z,57.43
2023-06-07T04:08:00.765Z,58.50
2023-06-07T04:13:03.710Z,58.72
2023-06-07T04:18:06.742Z,59.45
2023-06-07T04:23:09.574Z,59.04
2023-06-07T04:28:13.379Z,58.55
2023-06-07T04:33:18.579Z,58.79
2023-06-07T04:38:23.348Z,58.49
2023-06-07T04:43:26.681Z,59.15
2023-06-07T04:48:30.124Z,59.03
2023-06-07T04:53:37.965Z,59.64
2023-06-07T04:58:41.729Z,58.25
2023-06-07T05:03:44.596Z,57.23
2023-06-07T05:08:47.510Z,57.37
2023-06-07T05:13:50.359Z,55.98
2023-06-07T05:18:54.379Z,55.51
2023-06-07T05:23:57.218Z,56.53
2023-06-07T05:29:00.136Z,56.57
2023-06-07T05:34:02.920Z,56.56
2023-06-07T05:39:06.668Z,55.82
2023-06-07T05:44:09.449Z,55.89
2023-06-07T05:49:14.317Z,54.90
2023-06-07T05:54:17.597Z,54.04
2023-06-07T05:59:20.478Z,52.42
2023-06-07T06:04:24.362Z,52.45
2023-06-07T06:09:28.192Z,51.13
2023-06-07T06:14:31.102Z,49.92
2023-06-07T06:19:34.304Z,48.12
2023-06-07T06:24:37.141Z,48.87
2023-06-07T06:29:40.291Z,48.07
2023-06-07T06:34:43.133Z,47.39
2023-06-07T06:39:52.817Z,46.92
2023-06-07T06:44:55.987Z,47.06
2023-06-07T06:50:01.335Z,46.85
2023-06-07T06:55:04.858Z,45.57
2023-06-07T07:00:11.581Z,44.56
2023-06-07T07:05:15.196Z,44.05
2023-06-07T07:10:19.715Z,43.86
2023-06-07T07:15:23.129Z,42.95
2023-06-07T07:20:28.331Z,43.62
2023-06-07T07:25:31.122Z,42.10
2023-06-07T07:30:33.947Z,41.99
2023-06-07T07:35:36.942Z,41.55
2023-06-07T07:40:39.751Z,40.77
2023-06-07T07:45:42.879Z,40.18
2023-06-07T07:50:45.682Z,39.48
2023-06-07T07:55:48.604Z,39.86
2023-06-07T08:00:51.620Z,36.83
2023-06-07T08:05:54.430Z,35.97
2023-06-07T08:10:58.514Z,36.96
2023-06-07T08:16:07.663Z,36.20
2023-06-07T08:21:13.858Z,34.61
2023-06-07T08:26:19.475Z,34.32
2023-06-07T08:31:23.664Z,32.88
2023-06-07T08:36:29.592Z,33.32
2023-06-07T08:41:35.413Z,31.65
2023-06-07T08:46:38.941Z,31.57
2023-06-07T08:51:43.366Z,31.82
2023-06-07T08:56:47.258Z,31.40
2023-06-07T09:01:50.281Z,30.87
2023-06-07T09:06:53.506Z,31.29
2023-06-07T09:11:56.422Z,30.58
2023-06-07T09:17:01.128Z,30.09
2023-06-07T09:22:05.399Z,29.55
2023-06-07T09:27:12.057Z,29.30
2023-06-07T09:32:25.135Z,30.04
2023-06-07T09:37:59.196Z,29.52
2023-06-07T09:43:02.587Z,28.72
2023-06-07T09:48:08.552Z,27.73
2023-06-07T09:53:11.600Z,27.83
2023-06-07T09:58:23.484Z,27.36
2023-06-07T10:03:27.439Z,26.88
2023-06-07T10:08:30.463Z,26.43
2023-06-07T10:13:34.186Z,25.68
2023-06-07T10:18:45.162Z,25.78
2023-06-07T10:24:00.959Z,25.63
2023-06-07T10:29:21.880Z,25.73
2023-06-07T10:34:27.102Z,25.63
2023-06-07T10:39:30.590Z,26.04
2023-06-07T10:44:36.924Z,25.21
2023-06-07T10:49:40.288Z,26.06
2023-06-07T10:54:45.010Z,25.09
2023-06-07T10:59:47.928Z,23.90
2023-06-07T11:05:01.382Z,24.02
2023-06-07T11:10:08.577Z,24.34
2023-06-07T11:15:22.198Z,23.81
2023-06-07T11:20:37.491Z,23.80
2023-06-07T11:25:40.871Z,24.00
2023-06-07T11:30:46.337Z,24.10
2023-06-07T11:35:53.186Z,23.77
2023-06-07T11:40:57.311Z,24.17
2023-06-07T11:46:01.146Z,24.13
2023-06-07T11:51:04.079Z,24.18
2023-06-07T11:56:09.550Z,24.18
2023-06-07T12:01:13.588Z,24.06
2023-06-07T12:06:16.539Z,23.84
2023-06-07T12:11:25.475Z,24.00
2023-06-07T12:16:29.270Z,23.76
2023-06-07T12:21:32.510Z,23.85
2023-06-07T12:26:37.945Z,23.58
2023-06-07T12:31:44.180Z,22.92
2023-06-07T12:36:48.855Z,22.38
2023-06-07T12:41:51.704Z,22.46
2023-06-07T12:46:54.746Z,22.83
2023-06-07T12:51:57.590Z,22.72
2023-06-07T12:57:00.429Z,23.21
2023-06-07T13:02:03.835Z,22.90
2023-06-07T13:07:06.944Z,23.50
2023-06-07T13:12:10.651Z,23.59
2023-06-07T13:17:13.670Z,23.22
2023-06-07T13:22:17.670Z,22.90
2023-06-07T13:27:20.784Z,22.68
2023-06-07T13:32:24.029Z,21.24
2023-06-07T13:37:27.609Z,21.78
2023-06-07T13:42:30.392Z,21.69
2023-06-07T13:47:33.277Z,22.32
2023-06-07T13:52:36.103Z,22.25
2023-06-07T13:57:39.302Z,21.86
2023-06-07T14:02:43.186Z,20.82
2023-06-07T14:07:46.437Z,21.64
2023-06-07T14:12:49.319Z,20.90
2023-06-07T14:17:52.180Z,20.67
2023-06-07T14:22:55.349Z,20.36
2023-06-07T14:27:58.676Z,19.40
2023-06-07T14:33:01.515Z,19.22
2023-06-07T14:38:04.953Z,19.36
2023-06-07T14:43:09.635Z,19.55
2023-06-07T14:48:12.460Z,19.46
2023-06-07T14:53:15.418Z,19.06
2023-06-07T14:58:18.207Z,18.54
2023-06-07T15:03:21.075Z,18.45
2023-06-07T15:08:24.205Z,18.09
2023-06-07T15:13:27.031Z,18.47
2023-06-07T15:18:29.877Z,18.78
2023-06-07T15:23:32.694Z,19.40
2023-06-07T15:28:35.665Z,20.07
2023-06-07T15:33:38.469Z,20.72
2023-06-07T15:38:41.453Z,21.24
2023-06-07T15:43:45.471Z,21.21
2023-06-07T15:48:52.019Z,20.39
2023-06-07T15:53:55.272Z,19.43
2023-06-07T15:58:58.576Z,18.55
2023-06-07T16:04:01.478Z,18.12
2023-06-07T16:09:09.357Z,17.42
2023-06-07T16:14:13.390Z,17.16
2023-06-07T16:19:16.339Z,16.55
2023-06-07T16:24:19.225Z,16.42
2023-06-07T16:29:22.165Z,16.96
2023-06-07T16:34:25.102Z,18.05
2023-06-07T16:39:28.024Z,19.08
2023-06-07T16:44:31.456Z,19.43
2023-06-07T16:49:34.402Z,18.86
2023-06-07T16:54:37.218Z,18.18
2023-06-07T16:59:40.431Z,17.91
2023-06-07T17:04:43.287Z,17.27
2023-06-07T17:09:46.094Z,17.23
2023-06-07T17:14:49.795Z,16.98
2023-06-07T17:19:52.764Z,16.75
2023-06-07T17:24:55.833Z,16.99
2023-06-07T17:29:59.744Z,16.91
2023-06-07T17:35:02.611Z,17.04
2023-06-07T17:40:07.017Z,17.28
2023-06-07T17:45:10.461Z,17.73
2023-06-07T17:50:13.288Z,18.11
2023-06-07T17:55:16.264Z,18.53
2023-06-07T18:00:19.432Z,19.16
2023-06-07T18:05:22.288Z,20.13
2023-06-07T18:10:25.081Z,21.56
2023-06-07T18:15:28.954Z,24.00
2023-06-07T18:20:31.794Z,25.31
2023-06-07T18:25:34.579Z,27.66
2023-06-07T18:30:37.865Z,29.44
2023-06-07T18:35:40.705Z,30.76
2023-06-07T18:40:43.584Z,32.03
2023-06-07T18:45:48.908Z,32.23
2023-06-07T18:50:52.074Z,33.07
2023-06-07T18:55:54.877Z,33.35
2023-06-07T19:00:57.889Z,33.96
2023-06-07T19:06:00.970Z,34.65
2023-06-07T19:11:03.874Z,35.04
2023-06-07T19:16:07.048Z,35.28
2023-06-07T19:21:10.122Z,35.84
2023-06-07T19:26:12.901Z,36.19
2023-06-07T19:31:16.403Z,36.48
2023-06-07T19:36:19.447Z,37.25
2023-06-07T19:41:24.319Z,37.21
2023-06-07T19:46:27.239Z,37.70
2023-06-07T19:51:30.063Z,37.69
2023-06-07T19:56:32.883Z,37.95
2023-06-07T20:01:35.800Z,38.35
2023-06-07T20:06:40.039Z,38.38
2023-06-07T20:11:42.848Z,39.15
2023-06-07T20:16:45.655Z,38.98
2023-06-07T20:21:48.500Z,39.08
2023-06-07T20:26:51.361Z,39.81
2023-06-07T20:31:54.227Z,39.92
2023-06-07T20:36:57.529Z,40.04
2023-06-07T20:42:03.315Z,41.76
2023-06-07T20:47:07.326Z,41.12
2023-06-07T20:52:10.099Z,41.55
2023-06-07T20:57:13.433Z,42.16
2023-06-07T21:02:16.287Z,42.73
2023-06-07T21:07:19.129Z,43.06
2023-06-07T21:12:21.873Z,43.37
2023-06-07T21:17:24.792Z,41.60
2023-06-07T21:22:28.426Z,44.29
2023-06-07T21:27:31.231Z,44.64
2023-06-07T21:32:34.034Z,46.11
2023-06-07T21:37:36.905Z,44.12
2023-06-07T21:42:40.132Z,45.17
2023-06-07T21:47:43.894Z,43.77
2023-06-07T21:52:47.682Z,43.72
2023-06-07T21:57:50.492Z,46.46
2023-06-07T22:02:53.306Z,46.67
2023-06-07T22:07:56.728Z,46.24
2023-06-07T22:13:01.866Z,44.68
2023-06-07T22:18:04.823Z,45.88
2023-06-07T22:23:08.703Z,47.77
2023-06-07T22:28:13.622Z,47.37
2023-06-07T22:33:17.802Z,47.99
2023-06-07T22:38:20.631Z,49.28
2023-06-07T22:43:23.462Z,51.05
2023-06-07T22:48:26.969Z,51.24
2023-06-07T22:53:32.662Z,51.81
2023-06-07T22:58:35.968Z,50.69
2023-06-07T23:03:39.908Z,50.54
2023-06-07T23:08:44.153Z,51.28
2023-06-07T23:13:47.245Z,52.86
2023-06-07T23:18:50.094Z,53.82
2023-06-07T23:23:53.420Z,54.17
2023-06-07T23:28:56.287Z,55.20
2023-06-07T23:33:59.104Z,56.21
2023-06-07T23:39:01.870Z,56.17
2023-06-07T23:44:05.143Z,55.57
2023-06-07T23:49:08.159Z,54.62
2023-06-07T23:54:11.151Z,55.44
2023-06-07T23:59:13.918Z,57.02
